sensor_id;sensor_type;location;lat;lon;timestamp;temperature;humidity
27707;DHT22;36332;51.384;0.040;2023-12-04T00:02:09;7.70;99.90
27707;DHT22;36332;51.384;0.040;2023-12-04T00:04:38;7.70;99.90
27707;DHT22;36332;51.384;0.040;2023-12-04T00:07:06;7.70;99.90
27707;DHT22;36332;51.384;0.040;2023-12-04T00:09:33;7.70;99.90
27707;DHT22;36332;51.384;0.040;2023-12-04T00:12:01;7.60;99.90
27707;DHT22;36332;51.384;0.040;2023-12-04T00:14:29;7.60;99.90
27707;DHT22;36332;51.384;0.040;2023-12-04T00:16:57;7.60;99.90
27707;DHT22;36332;51.384;0.040;2023-12-04T00:19:25;7.60;99.90
27707;DHT22;36332;51.384;0.040;2023-12-04T00:21:54;7.50;99.90
27707;DHT22;36332;51.384;0.040;2023-12-04T00:24:22;7.50;99.90
27707;DHT22;36332;51.384;0.040;2023-12-04T00:26:50;7.40;99.90
27707;DHT22;36332;51.384;0.040;2023-12-04T00:29:18;7.40;99.90
27707;DHT22;36332;51.384;0.040;2023-12-04T00:31:45;7.40;99.90
27707;DHT22;36332;51.384;0.040;2023-12-04T00:34:13;7.40;99.90
27707;DHT22;36332;51.384;0.040;2023-12-04T00:36:41;7.30;99.90
27707;DHT22;36332;51.384;0.040;2023-12-04T00:39:08;7.30;99.90
27707;DHT22;36332;51.384;0.040;2023-12-04T00:41:36;7.30;99.90
27707;DHT22;36332;51.384;0.040;2023-12-04T00:44:06;7.20;99.90
27707;DHT22;36332;51.384;0.040;2023-12-04T00:46:34;7.20;99.90
27707;DHT22;36332;51.384;0.040;2023-12-04T00:49:01;7.20;99.90
27707;DHT22;36332;51.384;0.040;2023-12-04T00:51:37;7.20;99.90
27707;DHT22;36332;51.384;0.040;2023-12-04T00:54:06;7.20;99.90
27707;DHT22;36332;51.384;0.040;2023-12-04T00:56:33;7.20;99.90
27707;DHT22;36332;51.384;0.040;2023-12-04T00:59:01;7.10;99.90
27707;DHT22;36332;51.384;0.040;2023-12-04T01:01:31;7.10;99.90
27707;DHT22;36332;51.384;0.040;2023-12-04T01:03:59;7.10;99.90
27707;DHT22;36332;51.384;0.040;2023-12-04T01:06:27;7.10;99.90
27707;DHT22;36332;51.384;0.040;2023-12-04T01:08:54;7.10;99.90
27707;DHT22;36332;51.384;0.040;2023-12-04T01:11:23;7.10;99.90
27707;DHT22;36332;51.384;0.040;2023-12-04T01:13:52;8.50;99.90
27707;DHT22;36332;51.384;0.040;2023-12-04T01:16:20;7.10;99.90
27707;DHT22;36332;51.384;0.040;2023-12-04T01:18:47;7.00;99.90
27707;DHT22;36332;51.384;0.040;2023-12-04T01:21:15;7.10;99.90
27707;DHT22;36332;51.384;0.040;2023-12-04T01:23:43;7.00;99.90
27707;DHT22;36332;51.384;0.040;2023-12-04T01:26:11;7.00;99.90
27707;DHT22;36332;51.384;0.040;2023-12-04T01:28:39;7.00;99.90
27707;DHT22;36332;51.384;0.040;2023-12-04T01:31:07;7.00;99.90
27707;DHT22;36332;51.384;0.040;2023-12-04T01:33:34;9.50;99.90
27707;DHT22;36332;51.384;0.040;2023-12-04T01:36:03;6.90;99.90
27707;DHT22;36332;51.384;0.040;2023-12-04T01:38:31;7.00;99.90
27707;DHT22;36332;51.384;0.040;2023-12-04T01:40:59;8.10;99.90
27707;DHT22;36332;51.384;0.040;2023-12-04T01:43:27;6.90;99.90
27707;DHT22;36332;51.384;0.040;2023-12-04T01:45:56;6.90;99.90
27707;DHT22;36332;51.384;0.040;2023-12-04T01:48:25;6.90;99.90
27707;DHT22;36332;51.384;0.040;2023-12-04T01:50:55;6.80;99.90
27707;DHT22;36332;51.384;0.040;2023-12-04T01:53:24;6.80;99.90
27707;DHT22;36332;51.384;0.040;2023-12-04T01:55:52;6.90;99.90
27707;DHT22;36332;51.384;0.040;2023-12-04T01:58:20;6.80;99.90
27707;DHT22;36332;51.384;0.040;2023-12-04T02:00:48;6.70;99.90
27707;DHT22;36332;51.384;0.040;2023-12-04T02:03:16;6.70;99.90
27707;DHT22;36332;51.384;0.040;2023-12-04T02:05:47;6.70;99.90
27707;DHT22;36332;51.384;0.040;2023-12-04T02:08:15;6.70;99.90
27707;DHT22;36332;51.384;0.040;2023-12-04T02:10:43;6.60;99.90
27707;DHT22;36332;51.384;0.040;2023-12-04T02:13:10;6.60;99.90
27707;DHT22;36332;51.384;0.040;2023-12-04T02:15:38;6.60;99.90
27707;DHT22;36332;51.384;0.040;2023-12-04T02:18:06;6.60;99.90
27707;DHT22;36332;51.384;0.040;2023-12-04T02:20:35;6.60;99.90
27707;DHT22;36332;51.384;0.040;2023-12-04T02:23:03;6.60;99.90
27707;DHT22;36332;51.384;0.040;2023-12-04T02:25:31;6.60;99.90
27707;DHT22;36332;51.384;0.040;2023-12-04T02:28:09;6.50;99.90
27707;DHT22;36332;51.384;0.040;2023-12-04T02:30:41;6.50;99.90
27707;DHT22;36332;51.384;0.040;2023-12-04T02:33:12;6.50;99.90
27707;DHT22;36332;51.384;0.040;2023-12-04T02:35:42;6.50;99.90
27707;DHT22;36332;51.384;0.040;2023-12-04T02:38:10;6.50;99.90
27707;DHT22;36332;51.384;0.040;2023-12-04T02:40:38;6.50;99.90
27707;DHT22;36332;51.384;0.040;2023-12-04T02:43:06;6.50;99.90
27707;DHT22;36332;51.384;0.040;2023-12-04T02:45:34;10.30;99.90
27707;DHT22;36332;51.384;0.040;2023-12-04T02:48:02;6.50;99.90
27707;DHT22;36332;51.384;0.040;2023-12-04T02:50:30;6.50;99.90
27707;DHT22;36332;51.384;0.040;2023-12-04T02:52:58;6.50;99.90
27707;DHT22;36332;51.384;0.040;2023-12-04T02:55:26;6.60;99.90
27707;DHT22;36332;51.384;0.040;2023-12-04T02:57:54;6.50;99.90
27707;DHT22;36332;51.384;0.040;2023-12-04T03:00:22;6.60;99.90
27707;DHT22;36332;51.384;0.040;2023-12-04T03:02:52;6.60;99.90
27707;DHT22;36332;51.384;0.040;2023-12-04T03:05:20;6.60;99.90
27707;DHT22;36332;51.384;0.040;2023-12-04T03:07:47;6.60;99.90
27707;DHT22;36332;51.384;0.040;2023-12-04T03:10:15;6.80;99.90
27707;DHT22;36332;51.384;0.040;2023-12-04T03:12:43;6.60;99.90
27707;DHT22;36332;51.384;0.040;2023-12-04T03:15:10;6.70;99.90
27707;DHT22;36332;51.384;0.040;2023-12-04T03:17:39;6.60;99.90
27707;DHT22;36332;51.384;0.040;2023-12-04T03:20:08;6.60;99.90
27707;DHT22;36332;51.384;0.040;2023-12-04T03:22:36;6.60;99.90
27707;DHT22;36332;51.384;0.040;2023-12-04T03:25:05;6.60;99.90
27707;DHT22;36332;51.384;0.040;2023-12-04T03:27:33;6.60;99.90
27707;DHT22;36332;51.384;0.040;2023-12-04T03:30:01;6.60;99.90
27707;DHT22;36332;51.384;0.040;2023-12-04T03:32:30;6.60;99.90
27707;DHT22;36332;51.384;0.040;2023-12-04T03:37:26;6.70;99.90
27707;DHT22;36332;51.384;0.040;2023-12-04T03:39:55;6.70;99.90
27707;DHT22;36332;51.384;0.040;2023-12-04T03:42:22;6.70;99.90
27707;DHT22;36332;51.384;0.040;2023-12-04T03:44:50;6.70;99.90
27707;DHT22;36332;51.384;0.040;2023-12-04T03:47:17;6.70;99.90
27707;DHT22;36332;51.384;0.040;2023-12-04T03:49:45;6.70;99.90
27707;DHT22;36332;51.384;0.040;2023-12-04T03:52:13;6.60;99.90
27707;DHT22;36332;51.384;0.040;2023-12-04T03:54:41;6.60;99.90
27707;DHT22;36332;51.384;0.040;2023-12-04T03:57:11;6.70;99.90
27707;DHT22;36332;51.384;0.040;2023-12-04T03:59:39;6.60;99.90
27707;DHT22;36332;51.384;0.040;2023-12-04T04:02:07;6.70;99.90
27707;DHT22;36332;51.384;0.040;2023-12-04T04:04:34;6.60;99.90
27707;DHT22;36332;51.384;0.040;2023-12-04T04:07:03;6.70;99.90
27707;DHT22;36332;51.384;0.040;2023-12-04T04:09:31;6.70;99.90
27707;DHT22;36332;51.384;0.040;2023-12-04T04:11:59;6.70;99.90
27707;DHT22;36332;51.384;0.040;2023-12-04T04:14:27;6.70;99.90
27707;DHT22;36332;51.384;0.040;2023-12-04T04:16:54;6.70;99.90
27707;DHT22;36332;51.384;0.040;2023-12-04T04:19:22;6.80;99.90
27707;DHT22;36332;51.384;0.040;2023-12-04T04:21:50;6.70;99.90
27707;DHT22;36332;51.384;0.040;2023-12-04T04:24:18;6.80;99.90
27707;DHT22;36332;51.384;0.040;2023-12-04T04:26:45;6.80;99.90
27707;DHT22;36332;51.384;0.040;2023-12-04T04:29:13;6.80;99.90
27707;DHT22;36332;51.384;0.040;2023-12-04T04:31:41;6.80;99.90
27707;DHT22;36332;51.384;0.040;2023-12-04T04:34:08;6.80;99.90
27707;DHT22;36332;51.384;0.040;2023-12-04T04:36:36;6.80;99.90
27707;DHT22;36332;51.384;0.040;2023-12-04T04:39:05;6.80;99.90
27707;DHT22;36332;51.384;0.040;2023-12-04T04:41:34;6.80;99.90
27707;DHT22;36332;51.384;0.040;2023-12-04T04:44:02;6.80;99.90
27707;DHT22;36332;51.384;0.040;2023-12-04T04:46:30;6.90;99.90
27707;DHT22;36332;51.384;0.040;2023-12-04T04:48:57;6.80;99.90
27707;DHT22;36332;51.384;0.040;2023-12-04T04:51:25;6.90;99.90
27707;DHT22;36332;51.384;0.040;2023-12-04T04:53:53;6.80;99.90
27707;DHT22;36332;51.384;0.040;2023-12-04T04:56:21;6.80;99.90
27707;DHT22;36332;51.384;0.040;2023-12-04T04:58:50;6.70;99.90
27707;DHT22;36332;51.384;0.040;2023-12-04T05:01:20;6.80;99.90
27707;DHT22;36332;51.384;0.040;2023-12-04T05:03:47;6.80;99.90
27707;DHT22;36332;51.384;0.040;2023-12-04T05:06:15;6.80;99.90
27707;DHT22;36332;51.384;0.040;2023-12-04T05:08:43;6.70;99.90
27707;DHT22;36332;51.384;0.040;2023-12-04T05:11:14;6.80;99.90
27707;DHT22;36332;51.384;0.040;2023-12-04T05:13:42;6.80;99.90
27707;DHT22;36332;51.384;0.040;2023-12-04T05:16:10;6.80;99.90
27707;DHT22;36332;51.384;0.040;2023-12-04T05:18:39;7.20;99.90
27707;DHT22;36332;51.384;0.040;2023-12-04T05:21:09;6.80;99.90
27707;DHT22;36332;51.384;0.040;2023-12-04T05:23:38;6.70;99.90
27707;DHT22;36332;51.384;0.040;2023-12-04T05:26:06;6.80;99.90
27707;DHT22;36332;51.384;0.040;2023-12-04T05:28:34;6.80;99.90
27707;DHT22;36332;51.384;0.040;2023-12-04T05:31:03;6.80;99.90
27707;DHT22;36332;51.384;0.040;2023-12-04T05:33:31;6.80;99.90
27707;DHT22;36332;51.384;0.040;2023-12-04T05:36:00;6.80;99.90
27707;DHT22;36332;51.384;0.040;2023-12-04T05:38:27;6.80;99.90
27707;DHT22;36332;51.384;0.040;2023-12-04T05:40:55;6.80;99.90
27707;DHT22;36332;51.384;0.040;2023-12-04T05:43:23;6.80;99.90
27707;DHT22;36332;51.384;0.040;2023-12-04T05:45:51;6.80;99.90
27707;DHT22;36332;51.384;0.040;2023-12-04T05:48:19;6.80;99.90
27707;DHT22;36332;51.384;0.040;2023-12-04T05:50:47;6.90;99.90
27707;DHT22;36332;51.384;0.040;2023-12-04T05:53:15;6.80;99.90
27707;DHT22;36332;51.384;0.040;2023-12-04T05:55:43;6.90;99.90
27707;DHT22;36332;51.384;0.040;2023-12-04T05:58:13;6.90;99.90
27707;DHT22;36332;51.384;0.040;2023-12-04T06:00:40;6.90;99.90
27707;DHT22;36332;51.384;0.040;2023-12-04T06:03:08;6.90;99.90
27707;DHT22;36332;51.384;0.040;2023-12-04T06:05:37;6.90;99.90
27707;DHT22;36332;51.384;0.040;2023-12-04T06:08:04;6.90;99.90
27707;DHT22;36332;51.384;0.040;2023-12-04T06:10:35;6.90;99.90
27707;DHT22;36332;51.384;0.040;2023-12-04T06:13:03;6.90;99.90
27707;DHT22;36332;51.384;0.040;2023-12-04T06:15:30;6.90;99.90
27707;DHT22;36332;51.384;0.040;2023-12-04T06:17:58;6.90;99.90
27707;DHT22;36332;51.384;0.040;2023-12-04T06:20:26;6.90;99.90
27707;DHT22;36332;51.384;0.040;2023-12-04T06:22:54;8.60;99.90
27707;DHT22;36332;51.384;0.040;2023-12-04T06:25:22;6.90;99.90
27707;DHT22;36332;51.384;0.040;2023-12-04T06:27:50;6.90;99.90
27707;DHT22;36332;51.384;0.040;2023-12-04T06:30:19;6.90;99.90
27707;DHT22;36332;51.384;0.040;2023-12-04T06:32:47;6.90;99.90
27707;DHT22;36332;51.384;0.040;2023-12-04T06:35:15;6.90;99.90
27707;DHT22;36332;51.384;0.040;2023-12-04T06:37:48;6.90;99.90
27707;DHT22;36332;51.384;0.040;2023-12-04T06:40:16;6.90;99.90
27707;DHT22;36332;51.384;0.040;2023-12-04T06:42:45;6.90;99.90
27707;DHT22;36332;51.384;0.040;2023-12-04T06:45:13;6.90;99.90
27707;DHT22;36332;51.384;0.040;2023-12-04T06:47:43;6.90;99.90
27707;DHT22;36332;51.384;0.040;2023-12-04T06:50:12;6.90;99.90
27707;DHT22;36332;51.384;0.040;2023-12-04T06:52:40;6.90;99.90
27707;DHT22;36332;51.384;0.040;2023-12-04T06:55:08;6.90;99.90
27707;DHT22;36332;51.384;0.040;2023-12-04T06:57:36;6.90;99.90
27707;DHT22;36332;51.384;0.040;2023-12-04T07:00:05;6.90;99.90
27707;DHT22;36332;51.384;0.040;2023-12-04T07:02:50;6.90;99.90
27707;DHT22;36332;51.384;0.040;2023-12-04T07:05:19;6.90;99.90
27707;DHT22;36332;51.384;0.040;2023-12-04T07:07:48;6.90;99.90
27707;DHT22;36332;51.384;0.040;2023-12-04T07:10:16;6.90;99.90
27707;DHT22;36332;51.384;0.040;2023-12-04T07:12:44;6.90;99.90
27707;DHT22;36332;51.384;0.040;2023-12-04T07:15:12;6.90;99.90
27707;DHT22;36332;51.384;0.040;2023-12-04T07:17:40;6.90;99.90
27707;DHT22;36332;51.384;0.040;2023-12-04T07:20:08;6.90;99.90
27707;DHT22;36332;51.384;0.040;2023-12-04T07:22:36;6.90;99.90
27707;DHT22;36332;51.384;0.040;2023-12-04T07:25:06;6.90;99.90
27707;DHT22;36332;51.384;0.040;2023-12-04T07:27:37;6.90;99.90
27707;DHT22;36332;51.384;0.040;2023-12-04T07:30:06;6.90;99.90
27707;DHT22;36332;51.384;0.040;2023-12-04T07:32:34;6.90;99.90
27707;DHT22;36332;51.384;0.040;2023-12-04T07:35:04;6.90;99.90
27707;DHT22;36332;51.384;0.040;2023-12-04T07:37:32;6.90;99.90
27707;DHT22;36332;51.384;0.040;2023-12-04T07:39:59;6.90;99.90
27707;DHT22;36332;51.384;0.040;2023-12-04T07:42:28;7.00;99.90
27707;DHT22;36332;51.384;0.040;2023-12-04T07:44:56;6.90;99.90
27707;DHT22;36332;51.384;0.040;2023-12-04T07:47:23;6.90;99.90
27707;DHT22;36332;51.384;0.040;2023-12-04T07:49:52;7.00;99.90
27707;DHT22;36332;51.384;0.040;2023-12-04T07:52:20;6.90;99.90
27707;DHT22;36332;51.384;0.040;2023-12-04T07:54:48;7.00;99.90
27707;DHT22;36332;51.384;0.040;2023-12-04T07:57:15;7.00;99.90
27707;DHT22;36332;51.384;0.040;2023-12-04T07:59:43;7.00;99.90
27707;DHT22;36332;51.384;0.040;2023-12-04T08:02:11;7.00;99.90
27707;DHT22;36332;51.384;0.040;2023-12-04T08:04:39;6.90;99.90
27707;DHT22;36332;51.384;0.040;2023-12-04T08:07:06;7.00;99.90
27707;DHT22;36332;51.384;0.040;2023-12-04T08:09:35;7.00;99.90
27707;DHT22;36332;51.384;0.040;2023-12-04T08:12:03;7.00;99.90
27707;DHT22;36332;51.384;0.040;2023-12-04T08:14:30;7.00;99.90
27707;DHT22;36332;51.384;0.040;2023-12-04T08:16:59;7.00;99.90
27707;DHT22;36332;51.384;0.040;2023-12-04T08:19:27;7.00;99.90
27707;DHT22;36332;51.384;0.040;2023-12-04T08:21:55;7.00;99.90
27707;DHT22;36332;51.384;0.040;2023-12-04T08:24:23;7.10;99.90
27707;DHT22;36332;51.384;0.040;2023-12-04T08:26:51;7.10;99.90
27707;DHT22;36332;51.384;0.040;2023-12-04T08:29:19;7.10;99.90
27707;DHT22;36332;51.384;0.040;2023-12-04T08:31:47;7.10;99.90
27707;DHT22;36332;51.384;0.040;2023-12-04T08:34:15;7.10;99.90
27707;DHT22;36332;51.384;0.040;2023-12-04T08:36:43;7.10;99.90
27707;DHT22;36332;51.384;0.040;2023-12-04T08:39:13;7.20;99.90
27707;DHT22;36332;51.384;0.040;2023-12-04T08:41:44;7.20;99.90
27707;DHT22;36332;51.384;0.040;2023-12-04T08:44:24;7.20;99.90
27707;DHT22;36332;51.384;0.040;2023-12-04T08:46:52;7.30;99.90
27707;DHT22;36332;51.384;0.040;2023-12-04T08:49:20;7.30;99.90
27707;DHT22;36332;51.384;0.040;2023-12-04T08:51:51;7.40;99.90
27707;DHT22;36332;51.384;0.040;2023-12-04T08:54:20;8.80;99.90
27707;DHT22;36332;51.384;0.040;2023-12-04T08:56:48;7.50;99.90
27707;DHT22;36332;51.384;0.040;2023-12-04T08:59:16;7.50;99.90
27707;DHT22;36332;51.384;0.040;2023-12-04T09:01:44;7.50;99.90
27707;DHT22;36332;51.384;0.040;2023-12-04T09:04:12;7.50;99.90
27707;DHT22;36332;51.384;0.040;2023-12-04T09:06:40;7.50;99.90
27707;DHT22;36332;51.384;0.040;2023-12-04T09:09:27;7.50;99.90
27707;DHT22;36332;51.384;0.040;2023-12-04T09:11:56;7.50;99.90
27707;DHT22;36332;51.384;0.040;2023-12-04T09:14:24;7.50;99.90
27707;DHT22;36332;51.384;0.040;2023-12-04T09:16:52;7.50;99.90
27707;DHT22;36332;51.384;0.040;2023-12-04T09:19:20;7.50;99.90
27707;DHT22;36332;51.384;0.040;2023-12-04T09:21:48;7.50;99.90
27707;DHT22;36332;51.384;0.040;2023-12-04T09:24:29;7.50;99.90
27707;DHT22;36332;51.384;0.040;2023-12-04T09:27:00;7.40;99.90
27707;DHT22;36332;51.384;0.040;2023-12-04T09:29:28;7.40;99.90
27707;DHT22;36332;51.384;0.040;2023-12-04T09:31:56;7.50;99.90
27707;DHT22;36332;51.384;0.040;2023-12-04T09:34:23;7.50;99.90
27707;DHT22;36332;51.384;0.040;2023-12-04T09:36:51;7.50;99.90
27707;DHT22;36332;51.384;0.040;2023-12-04T09:39:21;9.20;99.90
27707;DHT22;36332;51.384;0.040;2023-12-04T09:41:50;7.60;99.90
27707;DHT22;36332;51.384;0.040;2023-12-04T09:44:19;7.60;99.90
27707;DHT22;36332;51.384;0.040;2023-12-04T09:46:48;7.60;99.90
27707;DHT22;36332;51.384;0.040;2023-12-04T09:49:16;7.70;99.90
27707;DHT22;36332;51.384;0.040;2023-12-04T09:51:47;7.70;99.90
27707;DHT22;36332;51.384;0.040;2023-12-04T09:54:17;7.60;99.90
27707;DHT22;36332;51.384;0.040;2023-12-04T09:56:45;7.60;99.90
27707;DHT22;36332;51.384;0.040;2023-12-04T09:59:14;7.70;99.90
27707;DHT22;36332;51.384;0.040;2023-12-04T10:01:45;7.60;99.90
27707;DHT22;36332;51.384;0.040;2023-12-04T10:04:14;7.70;99.90
27707;DHT22;36332;51.384;0.040;2023-12-04T10:06:43;7.70;99.90
27707;DHT22;36332;51.384;0.040;2023-12-04T10:11:45;7.80;99.90
27707;DHT22;36332;51.384;0.040;2023-12-04T10:14:19;7.80;99.90
27707;DHT22;36332;51.384;0.040;2023-12-04T10:16:47;7.80;99.90
27707;DHT22;36332;51.384;0.040;2023-12-04T10:21:47;8.00;99.90
27707;DHT22;36332;51.384;0.040;2023-12-04T10:24:32;8.10;99.90
27707;DHT22;36332;51.384;0.040;2023-12-04T10:27:09;8.20;99.90
27707;DHT22;36332;51.384;0.040;2023-12-04T10:29:48;8.20;99.90
27707;DHT22;36332;51.384;0.040;2023-12-04T10:32:19;8.20;99.90
27707;DHT22;36332;51.384;0.040;2023-12-04T10:37:20;8.20;99.90
27707;DHT22;36332;51.384;0.040;2023-12-04T10:39:51;8.20;99.90
27707;DHT22;36332;51.384;0.040;2023-12-04T10:42:29;8.20;99.90
27707;DHT22;36332;51.384;0.040;2023-12-04T10:44:59;8.20;99.90
27707;DHT22;36332;51.384;0.040;2023-12-04T10:47:29;8.30;99.90
27707;DHT22;36332;51.384;0.040;2023-12-04T10:52:30;8.30;99.90
27707;DHT22;36332;51.384;0.040;2023-12-04T10:54:59;8.40;99.90
27707;DHT22;36332;51.384;0.040;2023-12-04T10:57:37;8.30;99.90
27707;DHT22;36332;51.384;0.040;2023-12-04T11:00:10;8.40;99.90
27707;DHT22;36332;51.384;0.040;2023-12-04T11:02:42;8.40;99.90
27707;DHT22;36332;51.384;0.040;2023-12-04T11:05:15;8.80;99.90
27707;DHT22;36332;51.384;0.040;2023-12-04T11:07:48;8.40;99.90
27707;DHT22;36332;51.384;0.040;2023-12-04T11:11:00;8.50;99.90
27707;DHT22;36332;51.384;0.040;2023-12-04T11:13:34;8.50;99.90
27707;DHT22;36332;51.384;0.040;2023-12-04T11:18:36;8.60;99.90
27707;DHT22;36332;51.384;0.040;2023-12-04T11:21:10;8.60;99.90
27707;DHT22;36332;51.384;0.040;2023-12-04T11:23:39;8.70;99.90
27707;DHT22;36332;51.384;0.040;2023-12-04T11:26:08;8.70;99.90
27707;DHT22;36332;51.384;0.040;2023-12-04T11:28:37;8.70;99.90
27707;DHT22;36332;51.384;0.040;2023-12-04T11:31:06;8.60;99.90
27707;DHT22;36332;51.384;0.040;2023-12-04T11:33:36;8.70;99.90
27707;DHT22;36332;51.384;0.040;2023-12-04T11:36:12;8.70;99.90
27707;DHT22;36332;51.384;0.040;2023-12-04T11:38:45;8.60;99.90
27707;DHT22;36332;51.384;0.040;2023-12-04T11:41:19;8.60;99.90
27707;DHT22;36332;51.384;0.040;2023-12-04T11:43:55;8.60;99.90
27707;DHT22;36332;51.384;0.040;2023-12-04T11:46:25;8.60;99.90
27707;DHT22;36332;51.384;0.040;2023-12-04T11:49:26;8.50;99.90
27707;DHT22;36332;51.384;0.040;2023-12-04T11:51:45;8.50;99.90
27707;DHT22;36332;51.384;0.040;2023-12-04T11:54:21;8.60;99.90
27707;DHT22;36332;51.384;0.040;2023-12-04T11:59:39;8.60;99.90
27707;DHT22;36332;51.384;0.040;2023-12-04T12:02:09;8.60;99.90
27707;DHT22;36332;51.384;0.040;2023-12-04T12:04:38;8.60;99.90
27707;DHT22;36332;51.384;0.040;2023-12-04T12:07:06;8.60;99.90
27707;DHT22;36332;51.384;0.040;2023-12-04T12:09:35;8.60;99.90
27707;DHT22;36332;51.384;0.040;2023-12-04T12:12:03;8.60;99.90
27707;DHT22;36332;51.384;0.040;2023-12-04T12:14:31;8.60;99.90
27707;DHT22;36332;51.384;0.040;2023-12-04T12:17:00;8.60;99.90
27707;DHT22;36332;51.384;0.040;2023-12-04T12:19:29;8.60;99.90
27707;DHT22;36332;51.384;0.040;2023-12-04T12:21:57;8.60;99.90
27707;DHT22;36332;51.384;0.040;2023-12-04T12:24:26;8.50;99.90
27707;DHT22;36332;51.384;0.040;2023-12-04T12:31:51;8.50;99.90
27707;DHT22;36332;51.384;0.040;2023-12-04T12:34:20;8.50;99.90
27707;DHT22;36332;51.384;0.040;2023-12-04T12:36:48;8.50;99.90
27707;DHT22;36332;51.384;0.040;2023-12-04T12:39:16;8.50;99.90
27707;DHT22;36332;51.384;0.040;2023-12-04T12:41:48;8.50;99.90
27707;DHT22;36332;51.384;0.040;2023-12-04T12:44:17;8.40;99.90
27707;DHT22;36332;51.384;0.040;2023-12-04T12:46:48;8.40;99.90
27707;DHT22;36332;51.384;0.040;2023-12-04T12:49:20;8.40;99.90
27707;DHT22;36332;51.384;0.040;2023-12-04T12:52:05;8.50;99.90
27707;DHT22;36332;51.384;0.040;2023-12-04T12:54:40;8.50;99.90
27707;DHT22;36332;51.384;0.040;2023-12-04T12:57:09;8.50;99.90
27707;DHT22;36332;51.384;0.040;2023-12-04T12:59:40;8.50;99.90
27707;DHT22;36332;51.384;0.040;2023-12-04T13:02:09;8.50;99.90
27707;DHT22;36332;51.384;0.040;2023-12-04T13:04:41;8.50;99.90
27707;DHT22;36332;51.384;0.040;2023-12-04T13:07:09;8.50;99.90
27707;DHT22;36332;51.384;0.040;2023-12-04T13:09:38;8.50;99.90
27707;DHT22;36332;51.384;0.040;2023-12-04T13:12:07;8.50;99.90
27707;DHT22;36332;51.384;0.040;2023-12-04T13:14:35;8.50;99.90
27707;DHT22;36332;51.384;0.040;2023-12-04T13:17:04;8.50;99.90
27707;DHT22;36332;51.384;0.040;2023-12-04T13:19:34;8.50;99.90
27707;DHT22;36332;51.384;0.040;2023-12-04T13:22:03;8.50;99.90
27707;DHT22;36332;51.384;0.040;2023-12-04T13:27:00;8.50;99.90
27707;DHT22;36332;51.384;0.040;2023-12-04T13:29:27;8.60;99.90
27707;DHT22;36332;51.384;0.040;2023-12-04T13:31:55;8.60;99.90
27707;DHT22;36332;51.384;0.040;2023-12-04T13:34:23;8.60;99.90
27707;DHT22;36332;51.384;0.040;2023-12-04T13:36:50;8.70;99.90
27707;DHT22;36332;51.384;0.040;2023-12-04T13:39:18;8.70;99.90
27707;DHT22;36332;51.384;0.040;2023-12-04T13:41:54;8.70;99.90
27707;DHT22;36332;51.384;0.040;2023-12-04T13:44:41;8.70;99.90
27707;DHT22;36332;51.384;0.040;2023-12-04T13:47:08;8.70;99.90
27707;DHT22;36332;51.384;0.040;2023-12-04T13:49:36;8.70;99.90
27707;DHT22;36332;51.384;0.040;2023-12-04T13:52:05;8.80;99.90
27707;DHT22;36332;51.384;0.040;2023-12-04T13:54:35;8.80;99.90
27707;DHT22;36332;51.384;0.040;2023-12-04T13:57:14;8.80;99.90
27707;DHT22;36332;51.384;0.040;2023-12-04T14:00:00;8.80;99.90
27707;DHT22;36332;51.384;0.040;2023-12-04T14:02:30;8.70;99.90
27707;DHT22;36332;51.384;0.040;2023-12-04T14:04:59;8.70;99.90
27707;DHT22;36332;51.384;0.040;2023-12-04T14:07:28;8.70;99.90
27707;DHT22;36332;51.384;0.040;2023-12-04T14:09:58;8.70;99.90
27707;DHT22;36332;51.384;0.040;2023-12-04T14:12:25;8.70;99.90
27707;DHT22;36332;51.384;0.040;2023-12-04T14:14:53;8.70;99.90
27707;DHT22;36332;51.384;0.040;2023-12-04T14:17:24;8.70;99.90
27707;DHT22;36332;51.384;0.040;2023-12-04T14:19:52;8.70;99.90
27707;DHT22;36332;51.384;0.040;2023-12-04T14:22:20;8.70;99.90
27707;DHT22;36332;51.384;0.040;2023-12-04T14:24:47;8.70;99.90
27707;DHT22;36332;51.384;0.040;2023-12-04T14:27:16;8.70;99.90
27707;DHT22;36332;51.384;0.040;2023-12-04T14:29:43;8.70;99.90
27707;DHT22;36332;51.384;0.040;2023-12-04T14:32:12;8.70;99.90
27707;DHT22;36332;51.384;0.040;2023-12-04T14:34:40;8.70;99.90
27707;DHT22;36332;51.384;0.040;2023-12-04T14:37:08;8.70;99.90
27707;DHT22;36332;51.384;0.040;2023-12-04T14:39:35;8.60;99.90
27707;DHT22;36332;51.384;0.040;2023-12-04T14:42:03;8.70;99.90
27707;DHT22;36332;51.384;0.040;2023-12-04T14:44:31;8.60;99.90
27707;DHT22;36332;51.384;0.040;2023-12-04T14:46:59;8.70;99.90
27707;DHT22;36332;51.384;0.040;2023-12-04T14:49:27;8.60;99.90
27707;DHT22;36332;51.384;0.040;2023-12-04T14:51:55;8.60;99.90
27707;DHT22;36332;51.384;0.040;2023-12-04T14:54:23;8.50;99.90
27707;DHT22;36332;51.384;0.040;2023-12-04T14:57:05;8.50;99.90
27707;DHT22;36332;51.384;0.040;2023-12-04T14:59:51;8.50;99.90
27707;DHT22;36332;51.384;0.040;2023-12-04T15:02:37;8.50;99.90
27707;DHT22;36332;51.384;0.040;2023-12-04T15:05:24;8.50;99.90
27707;DHT22;36332;51.384;0.040;2023-12-04T15:08:14;8.40;99.90
27707;DHT22;36332;51.384;0.040;2023-12-04T15:10:51;8.40;99.90
27707;DHT22;36332;51.384;0.040;2023-12-04T15:13:30;8.30;99.90
27707;DHT22;36332;51.384;0.040;2023-12-04T15:16:11;8.30;99.90
27707;DHT22;36332;51.384;0.040;2023-12-04T15:19:08;8.20;99.90
27707;DHT22;36332;51.384;0.040;2023-12-04T15:21:55;8.30;99.90
27707;DHT22;36332;51.384;0.040;2023-12-04T15:24:23;8.20;99.90
27707;DHT22;36332;51.384;0.040;2023-12-04T15:26:52;8.30;99.90
27707;DHT22;36332;51.384;0.040;2023-12-04T15:29:19;8.20;99.90
27707;DHT22;36332;51.384;0.040;2023-12-04T15:31:47;8.20;99.90
27707;DHT22;36332;51.384;0.040;2023-12-04T15:34:15;8.20;99.90
27707;DHT22;36332;51.384;0.040;2023-12-04T15:36:44;8.20;99.90
27707;DHT22;36332;51.384;0.040;2023-12-04T15:39:12;8.20;99.90
27707;DHT22;36332;51.384;0.040;2023-12-04T15:41:40;8.20;99.90
27707;DHT22;36332;51.384;0.040;2023-12-04T15:44:08;8.20;99.90
27707;DHT22;36332;51.384;0.040;2023-12-04T15:46:36;8.10;99.90
27707;DHT22;36332;51.384;0.040;2023-12-04T15:49:03;8.10;99.90
27707;DHT22;36332;51.384;0.040;2023-12-04T15:51:31;8.10;99.90
27707;DHT22;36332;51.384;0.040;2023-12-04T15:53:59;8.10;99.90
27707;DHT22;36332;51.384;0.040;2023-12-04T15:56:27;8.00;99.90
27707;DHT22;36332;51.384;0.040;2023-12-04T15:58:54;8.00;99.90
27707;DHT22;36332;51.384;0.040;2023-12-04T16:01:25;8.00;99.90
27707;DHT22;36332;51.384;0.040;2023-12-04T16:03:53;8.00;99.90
27707;DHT22;36332;51.384;0.040;2023-12-04T16:06:20;8.30;99.90
27707;DHT22;36332;51.384;0.040;2023-12-04T16:08:48;7.90;99.90
27707;DHT22;36332;51.384;0.040;2023-12-04T16:11:19;7.90;99.90
27707;DHT22;36332;51.384;0.040;2023-12-04T16:13:46;9.10;99.90
27707;DHT22;36332;51.384;0.040;2023-12-04T16:16:14;7.80;99.90
27707;DHT22;36332;51.384;0.040;2023-12-04T16:18:41;7.80;99.90
27707;DHT22;36332;51.384;0.040;2023-12-04T16:21:09;7.80;99.90
27707;DHT22;36332;51.384;0.040;2023-12-04T16:23:37;7.80;99.90
27707;DHT22;36332;51.384;0.040;2023-12-04T16:26:06;7.80;99.90